createdAt,value
2022-12-28T00:01:04.878Z,19
2022-12-28T00:16:04.956Z,18
2022-12-28T00:31:04.794Z,17
2022-12-28T00:46:04.820Z,17
2022-12-28T01:01:05.033Z,18
2022-12-28T01:16:04.814Z,17
2022-12-28T01:31:04.714Z,15
2022-12-28T01:46:05.068Z,15
2022-12-28T02:01:05.192Z,13
2022-12-28T02:16:04.623Z,13
2022-12-28T02:31:04.827Z,11
2022-12-28T02:46:04.763Z,11
2022-12-28T03:01:04.811Z,10
2022-12-28T03:16:05.141Z,10
2022-12-28T03:31:05.166Z,10
2022-12-28T03:46:05.443Z,8
2022-12-28T04:01:05.446Z,8
2022-12-28T04:16:05.064Z,8
2022-12-28T04:31:05.090Z,8
2022-12-28T04:46:04.439Z,8
2022-12-28T05:01:04.880Z,6
2022-12-28T05:16:05.011Z,8
2022-12-28T05:31:05.071Z,7
2022-12-28T05:46:05.032Z,9
2022-12-28T06:01:05.333Z,8
2022-12-28T06:16:05.270Z,4
2022-12-28T06:31:05.437Z,6
2022-12-28T06:46:04.961Z,6
2022-12-28T07:01:05.270Z,6
2022-12-28T07:16:05.328Z,7
2022-12-28T07:31:05.147Z,6
2022-12-28T07:46:05.172Z,8
2022-12-28T08:01:05.388Z,12
2022-12-28T08:16:04.854Z,11
2022-12-28T08:31:05.022Z,15
2022-12-28T08:46:05.082Z,20
2022-12-28T09:01:04.874Z,14
2022-12-28T09:16:04.867Z,14
2022-12-28T09:31:04.699Z,14
2022-12-28T09:46:05.062Z,14
2022-12-28T10:01:05.044Z,9
2022-12-28T10:16:04.756Z,9
2022-12-28T10:31:05.458Z,11
2022-12-28T10:46:04.450Z,19
2022-12-28T11:01:05.387Z,10
2022-12-28T11:16:05.328Z,24
2022-12-28T11:31:04.994Z,21
2022-12-28T11:46:05.259Z,13
2022-12-28T12:01:05.415Z,12
2022-12-28T12:16:04.812Z,11
2022-12-28T12:31:05.197Z,11
2022-12-28T12:46:05.306Z,9
2022-12-28T13:01:05.391Z,11
2022-12-28T13:16:04.540Z,12
2022-12-28T13:31:05.367Z,10
2022-12-28T13:46:05.303Z,11
2022-12-28T14:01:04.657Z,14
2022-12-28T14:16:05.659Z,15
2022-12-28T14:31:04.847Z,13
2022-12-28T15:00:25.728Z,13
2022-12-28T15:01:05.345Z,14
2022-12-28T15:16:04.768Z,17
2022-12-28T15:31:04.659Z,21
2022-12-28T15:46:05.635Z,27
2022-12-28T16:01:04.801Z,24
2022-12-28T16:16:05.379Z,20
2022-12-28T16:31:05.435Z,23
2022-12-28T16:46:04.852Z,19
2022-12-28T17:01:05.085Z,17
2022-12-28T17:16:05.123Z,20
2022-12-28T17:31:05.076Z,17
2022-12-28T17:46:05.483Z,16
2022-12-28T18:01:04.955Z,19
2022-12-28T18:16:05.024Z,17
2022-12-28T18:31:05.100Z,16
2022-12-28T18:46:04.943Z,14
2022-12-28T19:01:05.379Z,15
2022-12-28T19:16:05.377Z,16
2022-12-28T19:31:05.328Z,22
2022-12-28T19:46:05.708Z,17
2022-12-28T20:01:05.389Z,15
2022-12-28T20:16:04.772Z,20
2022-12-28T20:31:05.205Z,14
2022-12-28T20:46:05.017Z,15
2022-12-28T21:01:04.685Z,12
2022-12-28T21:16:04.721Z,9
2022-12-28T21:31:05.190Z,11
2022-12-28T21:46:04.669Z,11
2022-12-28T22:01:04.643Z,13
2022-12-28T22:16:05.126Z,19
2022-12-28T22:31:05.609Z,17
2022-12-28T22:46:05.039Z,14
2022-12-28T23:01:05.427Z,13
2022-12-28T23:16:05.170Z,7
2022-12-28T23:31:05.366Z,8
2022-12-28T23:46:04.753Z,8
